EDDBEKKA

Guest
Details From EDDB - Berlin Schoenefeld
To EKKA - KARUP INT
Flight Number -
Tags generated
Created
Modified
Stats Distance 293 nm / 542 km
Max Altitude 34,000 ft / 10,363 m
Waypoints 8
Social Downloads 0
Likes 0
Share VATSIM

Download

Looking for another format? Having issues loading an existing format? Contact us
Advertisement - Login to hide

Notes

Basic altitude profile: - Ascent Rate: 2500ft/min - Ascent Speed: 250kts - Cruise Altitude: 35000ft - Cruise Speed: 420kts - Descent Rate: 1500ft/min - Descent Speed: 250kts Options: - Use NATs: yes - Use PACOTS: yes - Use low airways: no - Use high airways: yes

Route

EDDB LAG ROSOK BAMOR UZ711 GESKA UT59 KETAL EKKA

ID Type Via Altitude Latitude Longitude Leg Dist Tot Dist Heading (true) Name
O EDDB APT - 0 ft / 0 m 52.37854˚ 13.52063˚ - 0 nm - Berlin Schoenefeld
LAG VOR - 34,000 ft / 10,363 m 53.91983˚ 12.28633˚ 102 nm 102 nm 335° / 334° -
ROSOK FIX - 34,000 ft / 10,363 m 54.21000˚ 12.07667˚ 18 nm 121 nm 337° / 337° -
BAMOR FIX - 32,100 ft / 9,784 m 54.44611˚ 11.84139˚ 16 nm 138 nm 330° / 330° -
GESKA FIX UZ711 (AWY-HI) 29,800 ft / 9,083 m 54.61750˚ 11.93250˚ 10 nm 148 nm 17° / 17° -
ROBUS FIX UT59 (AWY-HI) 24,500 ft / 7,468 m 55.10944˚ 11.71972˚ 30 nm 179 nm 346° / 346° -
KETAL FIX UT59 (AWY-HI) 24,500 ft / 7,468 m 55.26806˚ 11.36611˚ 15 nm 194 nm 308° / 308° -
O EKKA APT - 0 ft / 0 m 56.29911˚ 9.11062˚ 98 nm 292 nm 310° / 308° KARUP INT

Altitude Profile

Advertisement - Login to hide

Weather


0- 5 10 15 20 25 30 35+ Temperature / ° C

Clouds and Precipitation
Forecast for 2018-05-21 18:00 UTC. Updated 3 hours ago

Ground ~20,000 ft ~40,000 ft Winds

EDDB

Details ICAO EDDB (BER)
Name Berlin Schoenefeld
Region Germany - Civil
Timezone Europe/Berlin (UTC+2.0)
Stats Elevation 157 ft / 48 m (AMSL)
Location 52.378541° 13.520629°
Runways 2
Magnetic Variation 3.865° E

METAR

EDDB 212020Z 09006KT CAVOK 16/05 Q1017 NOSIG

Decode

TAF

TAF EDDB 211700Z 2118/2218 10013KT CAVOK BECMG 2118/2121 10006KT

Decode

Departure Runways

ID Width Length Bearing (true) Bearing (mag) Surface Threshold Offset Overrun Length
07 148 ft / 45 m 9,817 ft / 2,992 m 68.75° 64.89° Asphalt 0 ft / 0 m 984 ft / 300 m
07L 148 ft / 45 m 8,867 ft / 2,703 m 68.77° 64.91° Concrete 0 ft / 0 m 525 ft / 160 m
25 148 ft / 45 m 9,817 ft / 2,992 m 248.78° 244.92° Asphalt 0 ft / 0 m 984 ft / 300 m
25R 148 ft / 45 m 8,867 ft / 2,703 m 248.80° 244.94° Concrete 0 ft / 0 m 984 ft / 300 m

EKKA

Details ICAO EKKA (KRP)
Name KARUP INT
Region Denmark / Faroe Islands
Timezone Europe/Copenhagen (UTC+2.0)
Stats Elevation 170 ft / 52 m (AMSL)
Location 56.299106° 9.110618°
Runways 5
Magnetic Variation 2.575° E

METAR

EKKA 212020Z AUTO 08002KT 9999NDV BKN240/// 15/08 Q1021

Decode

TAF

TAF EKKA 212006Z 2121/2218 12006KT 9999 BKN180= TAF EKSP 212006Z 2121/2218 10010KT 9999 BKN200

Decode

Destination Runways

ID Width Length Bearing (true) Bearing (mag) Surface Threshold Offset Overrun Length
04 49 ft / 15 m 3,044 ft / 928 m 33.66° 31.09° Asphalt 0 ft / 0 m 0 ft / 0 m
09 197 ft / 60 m 2,792 ft / 851 m 89.99° 87.42° Grass 0 ft / 0 m 0 ft / 0 m
09L 75 ft / 23 m 9,786 ft / 2,983 m 89.30° 86.73° Asphalt 0 ft / 0 m 466 ft / 142 m
09R 151 ft / 46 m 9,577 ft / 2,919 m 89.31° 86.74° Asphalt 0 ft / 0 m 755 ft / 230 m
14 59 ft / 18 m 2,300 ft / 701 m 134.84° 132.27° Asphalt 0 ft / 0 m 0 ft / 0 m
22 49 ft / 15 m 3,044 ft / 928 m 213.66° 211.09° Asphalt 0 ft / 0 m 0 ft / 0 m
27 197 ft / 60 m 2,792 ft / 851 m 270.01° 267.44° Grass 0 ft / 0 m 0 ft / 0 m
27L 151 ft / 46 m 9,577 ft / 2,919 m 269.35° 266.78° Asphalt 0 ft / 0 m 745 ft / 227 m
27R 75 ft / 23 m 9,786 ft / 2,983 m 269.34° 266.77° Asphalt 0 ft / 0 m 574 ft / 175 m
32 59 ft / 18 m 2,300 ft / 701 m 314.84° 312.27° Asphalt 0 ft / 0 m 0 ft / 0 m

Approach Navaids

Runway Type Ident Frequency Range Bearing (true) Bearing (mag) Slope Elevation
09R Localiser KAP 108.30 MHz 18 nm / 33 km 89.35° 86.78° - 170 ft / 52 m (AMSL)
09R Glidescope KAP 108.30 MHz 10 nm / 19 km 89.33° 86.76° 2.75° 170 ft / 52 m (AMSL)
27L Localiser KR 108.15 MHz 18 nm / 33 km 269.31° 266.73° - 170 ft / 52 m (AMSL)
27L Glidescope KR 108.15 MHz 10 nm / 19 km 269.33° 266.76° 2.75° 170 ft / 52 m (AMSL)

Popular Alternatives